sensor_id;sensor_type;location;lat;lon;timestamp;P1;durP1;ratioP1;P2;durP2;ratioP2
17024;SDS011;8629;42.496;25.620;2022-07-29T00:02:06;6.10;;;5.50;;
17024;SDS011;8629;42.496;25.620;2022-07-29T00:04:33;20.10;;;6.70;;
17024;SDS011;8629;42.496;25.620;2022-07-29T00:07:01;10.90;;;5.23;;
17024;SDS011;8629;42.496;25.620;2022-07-29T00:09:28;6.33;;;5.73;;
17024;SDS011;8629;42.496;25.620;2022-07-29T00:11:56;5.60;;;5.20;;
17024;SDS011;8629;42.496;25.620;2022-07-29T00:14:25;5.10;;;4.70;;
17024;SDS011;8629;42.496;25.620;2022-07-29T00:16:53;5.47;;;4.60;;
17024;SDS011;8629;42.496;25.620;2022-07-29T00:19:21;6.07;;;5.07;;
17024;SDS011;8629;42.496;25.620;2022-07-29T00:21:49;5.33;;;4.90;;
17024;SDS011;8629;42.496;25.620;2022-07-29T00:24:15;5.03;;;4.60;;
17024;SDS011;8629;42.496;25.620;2022-07-29T00:26:42;7.20;;;4.67;;
17024;SDS011;8629;42.496;25.620;2022-07-29T00:29:09;5.43;;;5.03;;
17024;SDS011;8629;42.496;25.620;2022-07-29T00:31:37;4.83;;;4.50;;
17024;SDS011;8629;42.496;25.620;2022-07-29T00:34:04;5.33;;;4.93;;
17024;SDS011;8629;42.496;25.620;2022-07-29T00:36:33;6.13;;;5.00;;
17024;SDS011;8629;42.496;25.620;2022-07-29T00:38:58;5.73;;;4.30;;
17024;SDS011;8629;42.496;25.620;2022-07-29T00:41:25;6.07;;;5.47;;
17024;SDS011;8629;42.496;25.620;2022-07-29T00:43:52;6.43;;;5.77;;
17024;SDS011;8629;42.496;25.620;2022-07-29T00:46:20;6.40;;;5.90;;
17024;SDS011;8629;42.496;25.620;2022-07-29T00:48:47;7.70;;;5.83;;
17024;SDS011;8629;42.496;25.620;2022-07-29T00:51:14;7.77;;;5.57;;
17024;SDS011;8629;42.496;25.620;2022-07-29T00:53:43;6.17;;;5.17;;
17024;SDS011;8629;42.496;25.620;2022-07-29T00:56:11;6.17;;;5.67;;
17024;SDS011;8629;42.496;25.620;2022-07-29T00:58:39;6.07;;;5.57;;
17024;SDS011;8629;42.496;25.620;2022-07-29T01:01:07;6.80;;;5.53;;
17024;SDS011;8629;42.496;25.620;2022-07-29T01:03:33;6.80;;;6.17;;
17024;SDS011;8629;42.496;25.620;2022-07-29T01:06:00;7.73;;;5.87;;
17024;SDS011;8629;42.496;25.620;2022-07-29T01:08:27;8.93;;;6.43;;
17024;SDS011;8629;42.496;25.620;2022-07-29T01:10:56;10.43;;;5.83;;
17024;SDS011;8629;42.496;25.620;2022-07-29T01:13:23;6.87;;;6.20;;
17024;SDS011;8629;42.496;25.620;2022-07-29T01:15:54;8.70;;;5.47;;
17024;SDS011;8629;42.496;25.620;2022-07-29T01:18:26;6.77;;;5.33;;
17024;SDS011;8629;42.496;25.620;2022-07-29T01:21:07;5.63;;;5.10;;
17024;SDS011;8629;42.496;25.620;2022-07-29T01:23:52;6.73;;;6.07;;
17024;SDS011;8629;42.496;25.620;2022-07-29T01:29:19;8.10;;;5.73;;
17024;SDS011;8629;42.496;25.620;2022-07-29T01:35:13;6.87;;;5.27;;
17024;SDS011;8629;42.496;25.620;2022-07-29T01:37:45;8.97;;;5.90;;
17024;SDS011;8629;42.496;25.620;2022-07-29T01:40:18;6.27;;;4.80;;
17024;SDS011;8629;42.496;25.620;2022-07-29T01:42:48;5.60;;;5.10;;
17024;SDS011;8629;42.496;25.620;2022-07-29T01:45:18;6.27;;;5.77;;
17024;SDS011;8629;42.496;25.620;2022-07-29T01:47:49;6.40;;;5.10;;
17024;SDS011;8629;42.496;25.620;2022-07-29T01:50:26;5.53;;;5.03;;
17024;SDS011;8629;42.496;25.620;2022-07-29T01:56:19;7.53;;;6.00;;
17024;SDS011;8629;42.496;25.620;2022-07-29T01:58:46;8.40;;;5.40;;
17024;SDS011;8629;42.496;25.620;2022-07-29T02:01:16;7.43;;;4.83;;
17024;SDS011;8629;42.496;25.620;2022-07-29T02:03:44;5.97;;;5.37;;
17024;SDS011;8629;42.496;25.620;2022-07-29T02:06:12;5.80;;;5.20;;
17024;SDS011;8629;42.496;25.620;2022-07-29T02:08:42;5.27;;;4.40;;
17024;SDS011;8629;42.496;25.620;2022-07-29T02:11:10;5.10;;;4.70;;
17024;SDS011;8629;42.496;25.620;2022-07-29T02:13:37;6.83;;;6.13;;
17024;SDS011;8629;42.496;25.620;2022-07-29T02:16:05;5.93;;;5.40;;
17024;SDS011;8629;42.496;25.620;2022-07-29T02:18:35;5.50;;;5.10;;
17024;SDS011;8629;42.496;25.620;2022-07-29T02:21:02;5.50;;;5.00;;
17024;SDS011;8629;42.496;25.620;2022-07-29T02:23:30;5.10;;;4.67;;
17024;SDS011;8629;42.496;25.620;2022-07-29T02:25:58;5.63;;;5.23;;
17024;SDS011;8629;42.496;25.620;2022-07-29T02:28:27;6.57;;;5.40;;
17024;SDS011;8629;42.496;25.620;2022-07-29T02:30:55;5.97;;;5.47;;
17024;SDS011;8629;42.496;25.620;2022-07-29T02:33:25;6.17;;;5.57;;
17024;SDS011;8629;42.496;25.620;2022-07-29T02:35:54;5.07;;;4.67;;
17024;SDS011;8629;42.496;25.620;2022-07-29T02:38:22;5.77;;;5.20;;
17024;SDS011;8629;42.496;25.620;2022-07-29T02:41:09;7.80;;;5.53;;
17024;SDS011;8629;42.496;25.620;2022-07-29T02:43:38;7.20;;;5.70;;
17024;SDS011;8629;42.496;25.620;2022-07-29T02:46:07;6.20;;;5.70;;
17024;SDS011;8629;42.496;25.620;2022-07-29T02:48:36;6.40;;;5.90;;
17024;SDS011;8629;42.496;25.620;2022-07-29T02:51:07;7.20;;;5.53;;
17024;SDS011;8629;42.496;25.620;2022-07-29T02:53:46;7.70;;;5.83;;
17024;SDS011;8629;42.496;25.620;2022-07-29T02:56:16;7.60;;;5.90;;
17024;SDS011;8629;42.496;25.620;2022-07-29T02:58:46;8.63;;;7.60;;
17024;SDS011;8629;42.496;25.620;2022-07-29T03:01:16;6.10;;;5.60;;
17024;SDS011;8629;42.496;25.620;2022-07-29T03:03:48;8.47;;;6.13;;
17024;SDS011;8629;42.496;25.620;2022-07-29T03:06:18;6.20;;;5.70;;
17024;SDS011;8629;42.496;25.620;2022-07-29T03:08:46;8.30;;;5.60;;
17024;SDS011;8629;42.496;25.620;2022-07-29T03:11:14;8.17;;;5.53;;
17024;SDS011;8629;42.496;25.620;2022-07-29T03:13:42;6.30;;;5.70;;
17024;SDS011;8629;42.496;25.620;2022-07-29T03:16:10;6.03;;;5.60;;
17024;SDS011;8629;42.496;25.620;2022-07-29T03:18:38;6.30;;;5.70;;
17024;SDS011;8629;42.496;25.620;2022-07-29T03:21:05;7.00;;;5.97;;
17024;SDS011;8629;42.496;25.620;2022-07-29T03:23:34;6.97;;;5.40;;
17024;SDS011;8629;42.496;25.620;2022-07-29T03:26:01;6.20;;;5.53;;
17024;SDS011;8629;42.496;25.620;2022-07-29T03:28:28;6.40;;;5.80;;
17024;SDS011;8629;42.496;25.620;2022-07-29T03:30:56;6.17;;;5.60;;
17024;SDS011;8629;42.496;25.620;2022-07-29T03:33:23;6.47;;;5.40;;
17024;SDS011;8629;42.496;25.620;2022-07-29T03:35:51;6.67;;;5.93;;
17024;SDS011;8629;42.496;25.620;2022-07-29T03:38:18;6.73;;;6.13;;
17024;SDS011;8629;42.496;25.620;2022-07-29T03:40:48;6.63;;;6.03;;
17024;SDS011;8629;42.496;25.620;2022-07-29T03:43:18;6.00;;;5.60;;
17024;SDS011;8629;42.496;25.620;2022-07-29T03:45:47;7.13;;;6.13;;
17024;SDS011;8629;42.496;25.620;2022-07-29T03:48:16;9.70;;;5.50;;
17024;SDS011;8629;42.496;25.620;2022-07-29T03:50:44;7.93;;;5.67;;
17024;SDS011;8629;42.496;25.620;2022-07-29T03:53:11;6.00;;;5.37;;
17024;SDS011;8629;42.496;25.620;2022-07-29T03:55:40;12.17;;;5.83;;
17024;SDS011;8629;42.496;25.620;2022-07-29T03:58:10;10.63;;;5.53;;
17024;SDS011;8629;42.496;25.620;2022-07-29T04:00:37;5.90;;;5.40;;
17024;SDS011;8629;42.496;25.620;2022-07-29T04:03:05;8.20;;;7.47;;
17024;SDS011;8629;42.496;25.620;2022-07-29T04:05:32;6.77;;;6.17;;
17024;SDS011;8629;42.496;25.620;2022-07-29T04:07:59;128.93;;;86.57;;
17024;SDS011;8629;42.496;25.620;2022-07-29T04:10:27;47.70;;;34.97;;
17024;SDS011;8629;42.496;25.620;2022-07-29T04:12:54;30.67;;;23.70;;
17024;SDS011;8629;42.496;25.620;2022-07-29T04:15:23;83.57;;;66.40;;
17024;SDS011;8629;42.496;25.620;2022-07-29T04:17:50;107.50;;;76.97;;
17024;SDS011;8629;42.496;25.620;2022-07-29T04:20:18;22.33;;;16.80;;
17024;SDS011;8629;42.496;25.620;2022-07-29T04:22:45;7.40;;;6.70;;
17024;SDS011;8629;42.496;25.620;2022-07-29T04:25:12;7.37;;;5.37;;
17024;SDS011;8629;42.496;25.620;2022-07-29T04:27:39;6.23;;;5.47;;
17024;SDS011;8629;42.496;25.620;2022-07-29T04:30:26;6.50;;;5.47;;
17024;SDS011;8629;42.496;25.620;2022-07-29T04:32:55;7.43;;;6.73;;
17024;SDS011;8629;42.496;25.620;2022-07-29T04:35:22;9.53;;;6.67;;
17024;SDS011;8629;42.496;25.620;2022-07-29T04:37:49;13.73;;;12.30;;
17024;SDS011;8629;42.496;25.620;2022-07-29T04:40:16;14.63;;;13.10;;
17024;SDS011;8629;42.496;25.620;2022-07-29T04:42:43;8.37;;;6.33;;
17024;SDS011;8629;42.496;25.620;2022-07-29T04:45:11;6.60;;;4.20;;
17024;SDS011;8629;42.496;25.620;2022-07-29T04:47:40;5.93;;;4.80;;
17024;SDS011;8629;42.496;25.620;2022-07-29T04:50:07;9.23;;;7.47;;
17024;SDS011;8629;42.496;25.620;2022-07-29T04:52:35;14.00;;;12.33;;
17024;SDS011;8629;42.496;25.620;2022-07-29T04:55:02;19.63;;;15.07;;
17024;SDS011;8629;42.496;25.620;2022-07-29T04:57:30;75.83;;;40.40;;
17024;SDS011;8629;42.496;25.620;2022-07-29T04:59:57;41.87;;;33.70;;
17024;SDS011;8629;42.496;25.620;2022-07-29T05:02:24;57.07;;;44.17;;
17024;SDS011;8629;42.496;25.620;2022-07-29T05:04:53;9.67;;;8.63;;
17024;SDS011;8629;42.496;25.620;2022-07-29T05:07:20;5.60;;;5.10;;
17024;SDS011;8629;42.496;25.620;2022-07-29T05:09:47;4.60;;;4.20;;
17024;SDS011;8629;42.496;25.620;2022-07-29T05:12:14;8.50;;;4.07;;
17024;SDS011;8629;42.496;25.620;2022-07-29T05:14:41;5.43;;;4.00;;
17024;SDS011;8629;42.496;25.620;2022-07-29T05:17:08;6.60;;;4.60;;
17024;SDS011;8629;42.496;25.620;2022-07-29T05:19:35;9.17;;;4.73;;
17024;SDS011;8629;42.496;25.620;2022-07-29T05:22:03;4.03;;;3.73;;
17024;SDS011;8629;42.496;25.620;2022-07-29T05:24:30;4.50;;;4.10;;
17024;SDS011;8629;42.496;25.620;2022-07-29T05:26:57;6.57;;;4.20;;
17024;SDS011;8629;42.496;25.620;2022-07-29T05:29:24;4.27;;;3.80;;
17024;SDS011;8629;42.496;25.620;2022-07-29T05:31:51;4.23;;;3.73;;
17024;SDS011;8629;42.496;25.620;2022-07-29T05:34:18;4.63;;;4.10;;
17024;SDS011;8629;42.496;25.620;2022-07-29T05:36:45;5.50;;;3.80;;
17024;SDS011;8629;42.496;25.620;2022-07-29T05:39:13;5.90;;;4.30;;
17024;SDS011;8629;42.496;25.620;2022-07-29T05:41:40;6.07;;;4.07;;
17024;SDS011;8629;42.496;25.620;2022-07-29T05:44:08;3.43;;;3.23;;
17024;SDS011;8629;42.496;25.620;2022-07-29T05:46:34;3.87;;;3.57;;
17024;SDS011;8629;42.496;25.620;2022-07-29T05:49:02;3.80;;;3.50;;
17024;SDS011;8629;42.496;25.620;2022-07-29T05:51:29;9.57;;;5.37;;
17024;SDS011;8629;42.496;25.620;2022-07-29T05:53:56;21.90;;;5.83;;
17024;SDS011;8629;42.496;25.620;2022-07-29T05:59:41;5.53;;;4.10;;
17024;SDS011;8629;42.496;25.620;2022-07-29T06:02:07;7.03;;;3.37;;
17024;SDS011;8629;42.496;25.620;2022-07-29T06:04:34;9.93;;;4.33;;
17024;SDS011;8629;42.496;25.620;2022-07-29T06:07:01;5.63;;;4.47;;
17024;SDS011;8629;42.496;25.620;2022-07-29T06:09:28;6.57;;;4.37;;
17024;SDS011;8629;42.496;25.620;2022-07-29T06:15:19;3.97;;;3.63;;
17024;SDS011;8629;42.496;25.620;2022-07-29T06:17:45;3.87;;;3.47;;
17024;SDS011;8629;42.496;25.620;2022-07-29T06:26:55;4.17;;;2.83;;
17024;SDS011;8629;42.496;25.620;2022-07-29T06:29:23;4.50;;;3.20;;
17024;SDS011;8629;42.496;25.620;2022-07-29T06:31:51;3.73;;;3.10;;
17024;SDS011;8629;42.496;25.620;2022-07-29T06:37:39;4.77;;;2.77;;
17024;SDS011;8629;42.496;25.620;2022-07-29T06:40:07;3.43;;;2.80;;
17024;SDS011;8629;42.496;25.620;2022-07-29T06:42:53;3.07;;;2.87;;
17024;SDS011;8629;42.496;25.620;2022-07-29T06:45:20;3.10;;;2.87;;
17024;SDS011;8629;42.496;25.620;2022-07-29T06:47:49;3.40;;;3.07;;
17024;SDS011;8629;42.496;25.620;2022-07-29T06:50:16;4.30;;;2.70;;
17024;SDS011;8629;42.496;25.620;2022-07-29T06:52:43;3.00;;;2.70;;
17024;SDS011;8629;42.496;25.620;2022-07-29T06:55:10;3.88;;;3.28;;
17024;SDS011;8629;42.496;25.620;2022-07-29T06:57:36;5.53;;;3.00;;
17024;SDS011;8629;42.496;25.620;2022-07-29T07:00:04;6.15;;;3.40;;
17024;SDS011;8629;42.496;25.620;2022-07-29T07:02:31;3.85;;;3.50;;
17024;SDS011;8629;42.496;25.620;2022-07-29T07:05:00;6.65;;;4.10;;
17024;SDS011;8629;42.496;25.620;2022-07-29T07:07:27;3.17;;;2.90;;
17024;SDS011;8629;42.496;25.620;2022-07-29T07:09:54;5.90;;;3.10;;
17024;SDS011;8629;42.496;25.620;2022-07-29T07:12:21;3.90;;;3.60;;
17024;SDS011;8629;42.496;25.620;2022-07-29T07:14:48;3.40;;;3.20;;
17024;SDS011;8629;42.496;25.620;2022-07-29T07:17:15;3.15;;;2.88;;
17024;SDS011;8629;42.496;25.620;2022-07-29T07:19:42;3.20;;;2.97;;
17024;SDS011;8629;42.496;25.620;2022-07-29T07:22:11;3.28;;;2.97;;
17024;SDS011;8629;42.496;25.620;2022-07-29T07:24:38;5.43;;;3.72;;
17024;SDS011;8629;42.496;25.620;2022-07-29T07:27:05;4.03;;;3.30;;
17024;SDS011;8629;42.496;25.620;2022-07-29T07:29:32;10.70;;;4.68;;
17024;SDS011;8629;42.496;25.620;2022-07-29T07:31:59;3.35;;;3.15;;
17024;SDS011;8629;42.496;25.620;2022-07-29T07:34:26;3.97;;;3.53;;
17024;SDS011;8629;42.496;25.620;2022-07-29T07:36:53;3.88;;;3.15;;
17024;SDS011;8629;42.496;25.620;2022-07-29T07:39:23;3.60;;;3.40;;
17024;SDS011;8629;42.496;25.620;2022-07-29T07:41:51;5.82;;;3.35;;
17024;SDS011;8629;42.496;25.620;2022-07-29T07:44:17;14.73;;;4.68;;
17024;SDS011;8629;42.496;25.620;2022-07-29T07:46:44;4.40;;;3.28;;
17024;SDS011;8629;42.496;25.620;2022-07-29T07:49:11;3.80;;;3.50;;
17024;SDS011;8629;42.496;25.620;2022-07-29T07:51:38;5.82;;;3.20;;
17024;SDS011;8629;42.496;25.620;2022-07-29T07:54:05;5.70;;;3.72;;
17024;SDS011;8629;42.496;25.620;2022-07-29T07:56:33;3.70;;;3.40;;
17024;SDS011;8629;42.496;25.620;2022-07-29T07:59:02;4.45;;;3.47;;
17024;SDS011;8629;42.496;25.620;2022-07-29T08:01:29;10.07;;;4.00;;
17024;SDS011;8629;42.496;25.620;2022-07-29T08:03:57;4.28;;;3.88;;
17024;SDS011;8629;42.496;25.620;2022-07-29T08:06:24;5.82;;;3.40;;
17024;SDS011;8629;42.496;25.620;2022-07-29T08:08:51;4.75;;;3.65;;
17024;SDS011;8629;42.496;25.620;2022-07-29T08:11:19;4.97;;;4.07;;
17024;SDS011;8629;42.496;25.620;2022-07-29T08:13:48;4.25;;;3.95;;
17024;SDS011;8629;42.496;25.620;2022-07-29T08:16:15;9.18;;;4.32;;
17024;SDS011;8629;42.496;25.620;2022-07-29T08:18:42;4.70;;;3.75;;
17024;SDS011;8629;42.496;25.620;2022-07-29T08:21:10;4.05;;;3.45;;
17024;SDS011;8629;42.496;25.620;2022-07-29T08:23:36;3.85;;;3.45;;
17024;SDS011;8629;42.496;25.620;2022-07-29T08:26:04;4.13;;;3.55;;
17024;SDS011;8629;42.496;25.620;2022-07-29T08:28:35;4.10;;;3.70;;
17024;SDS011;8629;42.496;25.620;2022-07-29T08:31:04;5.57;;;4.18;;
17024;SDS011;8629;42.496;25.620;2022-07-29T08:33:31;4.20;;;3.40;;
17024;SDS011;8629;42.496;25.620;2022-07-29T08:35:59;3.80;;;3.50;;
17024;SDS011;8629;42.496;25.620;2022-07-29T08:38:26;4.07;;;3.78;;
17024;SDS011;8629;42.496;25.620;2022-07-29T08:40:53;3.70;;;3.50;;
17024;SDS011;8629;42.496;25.620;2022-07-29T08:43:20;3.92;;;3.63;;
17024;SDS011;8629;42.496;25.620;2022-07-29T08:45:48;3.50;;;3.20;;
17024;SDS011;8629;42.496;25.620;2022-07-29T08:48:17;8.50;;;3.58;;
17024;SDS011;8629;42.496;25.620;2022-07-29T08:50:45;3.38;;;3.15;;
17024;SDS011;8629;42.496;25.620;2022-07-29T08:53:14;6.93;;;3.25;;
17024;SDS011;8629;42.496;25.620;2022-07-29T08:55:43;4.45;;;4.15;;
17024;SDS011;8629;42.496;25.620;2022-07-29T08:58:12;10.57;;;3.70;;
17024;SDS011;8629;42.496;25.620;2022-07-29T09:00:41;4.10;;;3.80;;
17024;SDS011;8629;42.496;25.620;2022-07-29T09:03:08;3.60;;;3.40;;
17024;SDS011;8629;42.496;25.620;2022-07-29T09:05:37;4.22;;;3.88;;
17024;SDS011;8629;42.496;25.620;2022-07-29T09:08:05;4.03;;;3.63;;
17024;SDS011;8629;42.496;25.620;2022-07-29T09:10:32;3.55;;;3.25;;
17024;SDS011;8629;42.496;25.620;2022-07-29T09:12:59;4.88;;;4.18;;
17024;SDS011;8629;42.496;25.620;2022-07-29T09:15:26;5.47;;;3.90;;
17024;SDS011;8629;42.496;25.620;2022-07-29T09:17:53;4.45;;;4.15;;
17024;SDS011;8629;42.496;25.620;2022-07-29T09:20:21;6.30;;;3.58;;
17024;SDS011;8629;42.496;25.620;2022-07-29T09:22:50;4.13;;;3.72;;
17024;SDS011;8629;42.496;25.620;2022-07-29T09:25:31;4.68;;;3.40;;
17024;SDS011;8629;42.496;25.620;2022-07-29T09:28:05;5.10;;;3.80;;
17024;SDS011;8629;42.496;25.620;2022-07-29T09:30:33;3.75;;;3.33;;
17024;SDS011;8629;42.496;25.620;2022-07-29T09:33:01;4.95;;;3.03;;
17024;SDS011;8629;42.496;25.620;2022-07-29T09:38:58;3.75;;;3.45;;
17024;SDS011;8629;42.496;25.620;2022-07-29T09:41:25;4.97;;;3.25;;
17024;SDS011;8629;42.496;25.620;2022-07-29T09:43:53;7.15;;;4.18;;
17024;SDS011;8629;42.496;25.620;2022-07-29T09:46:21;3.40;;;3.20;;
17024;SDS011;8629;42.496;25.620;2022-07-29T09:51:32;4.70;;;3.42;;
17024;SDS011;8629;42.496;25.620;2022-07-29T09:54:04;3.65;;;3.03;;
17024;SDS011;8629;42.496;25.620;2022-07-29T09:56:47;3.90;;;3.60;;
17024;SDS011;8629;42.496;25.620;2022-07-29T09:59:15;4.07;;;3.67;;
17024;SDS011;8629;42.496;25.620;2022-07-29T10:08:25;4.32;;;4.03;;
17024;SDS011;8629;42.496;25.620;2022-07-29T10:11:03;3.83;;;3.53;;
17024;SDS011;8629;42.496;25.620;2022-07-29T10:13:35;3.72;;;3.40;;
17024;SDS011;8629;42.496;25.620;2022-07-29T10:16:03;3.90;;;3.60;;
17024;SDS011;8629;42.496;25.620;2022-07-29T10:18:30;7.82;;;3.63;;
17024;SDS011;8629;42.496;25.620;2022-07-29T10:20:57;4.47;;;3.33;;
17024;SDS011;8629;42.496;25.620;2022-07-29T10:23:26;5.40;;;3.60;;
17024;SDS011;8629;42.496;25.620;2022-07-29T10:25:54;3.60;;;3.38;;
17024;SDS011;8629;42.496;25.620;2022-07-29T10:28:21;3.47;;;3.08;;
17024;SDS011;8629;42.496;25.620;2022-07-29T10:30:48;6.00;;;3.70;;
17024;SDS011;8629;42.496;25.620;2022-07-29T10:33:27;3.53;;;3.22;;
17024;SDS011;8629;42.496;25.620;2022-07-29T10:36:18;2.92;;;2.60;;
17024;SDS011;8629;42.496;25.620;2022-07-29T10:38:53;4.20;;;3.60;;
17024;SDS011;8629;42.496;25.620;2022-07-29T10:44:21;3.63;;;3.33;;
17024;SDS011;8629;42.496;25.620;2022-07-29T10:46:50;7.00;;;3.35;;
17024;SDS011;8629;42.496;25.620;2022-07-29T10:49:18;2.85;;;2.65;;
17024;SDS011;8629;42.496;25.620;2022-07-29T10:51:56;4.25;;;3.85;;
17024;SDS011;8629;42.496;25.620;2022-07-29T10:54:38;3.15;;;2.92;;
17024;SDS011;8629;42.496;25.620;2022-07-29T10:57:14;3.85;;;3.50;;
17024;SDS011;8629;42.496;25.620;2022-07-29T10:59:46;4.10;;;3.30;;
17024;SDS011;8629;42.496;25.620;2022-07-29T11:05:10;3.60;;;3.22;;
17024;SDS011;8629;42.496;25.620;2022-07-29T11:07:39;3.63;;;3.17;;
17024;SDS011;8629;42.496;25.620;2022-07-29T11:10:19;3.30;;;3.00;;
17024;SDS011;8629;42.496;25.620;2022-07-29T11:12:48;3.30;;;2.50;;
17024;SDS011;8629;42.496;25.620;2022-07-29T11:15:17;3.97;;;2.95;;
17024;SDS011;8629;42.496;25.620;2022-07-29T11:20:36;3.60;;;3.20;;
17024;SDS011;8629;42.496;25.620;2022-07-29T11:23:17;3.85;;;3.38;;
17024;SDS011;8629;42.496;25.620;2022-07-29T11:25:45;3.45;;;2.85;;
17024;SDS011;8629;42.496;25.620;2022-07-29T11:28:16;2.83;;;2.63;;
17024;SDS011;8629;42.496;25.620;2022-07-29T11:30:47;4.28;;;2.80;;
17024;SDS011;8629;42.496;25.620;2022-07-29T11:33:26;2.90;;;2.60;;
17024;SDS011;8629;42.496;25.620;2022-07-29T11:36:09;4.30;;;2.67;;
17024;SDS011;8629;42.496;25.620;2022-07-29T11:38:37;3.50;;;2.67;;
17024;SDS011;8629;42.496;25.620;2022-07-29T11:41:20;3.67;;;2.63;;
17024;SDS011;8629;42.496;25.620;2022-07-29T11:43:49;3.10;;;2.90;;
17024;SDS011;8629;42.496;25.620;2022-07-29T11:46:18;3.90;;;3.60;;
17024;SDS011;8629;42.496;25.620;2022-07-29T11:49:09;5.97;;;3.90;;
17024;SDS011;8629;42.496;25.620;2022-07-29T11:51:36;7.80;;;3.05;;
17024;SDS011;8629;42.496;25.620;2022-07-29T11:54:03;4.95;;;3.22;;
17024;SDS011;8629;42.496;25.620;2022-07-29T11:56:33;2.97;;;2.70;;
17024;SDS011;8629;42.496;25.620;2022-07-29T11:59:06;3.40;;;3.10;;
17024;SDS011;8629;42.496;25.620;2022-07-29T12:01:34;6.82;;;3.10;;
17024;SDS011;8629;42.496;25.620;2022-07-29T12:04:04;4.70;;;2.75;;
17024;SDS011;8629;42.496;25.620;2022-07-29T12:09:53;3.40;;;3.10;;
17024;SDS011;8629;42.496;25.620;2022-07-29T12:12:20;3.53;;;3.22;;
17024;SDS011;8629;42.496;25.620;2022-07-29T12:14:49;3.17;;;2.90;;
17024;SDS011;8629;42.496;25.620;2022-07-29T12:17:25;3.08;;;2.88;;
17024;SDS011;8629;42.496;25.620;2022-07-29T12:19:53;4.50;;;2.83;;
17024;SDS011;8629;42.496;25.620;2022-07-29T12:22:26;2.47;;;2.38;;
17024;SDS011;8629;42.496;25.620;2022-07-29T12:24:54;3.33;;;3.13;;
17024;SDS011;8629;42.496;25.620;2022-07-29T12:27:22;3.25;;;2.90;;
17024;SDS011;8629;42.496;25.620;2022-07-29T12:29:57;5.72;;;3.13;;
17024;SDS011;8629;42.496;25.620;2022-07-29T12:32:30;3.75;;;2.88;;
17024;SDS011;8629;42.496;25.620;2022-07-29T12:34:58;4.07;;;2.97;;
17024;SDS011;8629;42.496;25.620;2022-07-29T12:37:26;3.00;;;2.80;;
17024;SDS011;8629;42.496;25.620;2022-07-29T12:39:53;3.15;;;2.58;;
17024;SDS011;8629;42.496;25.620;2022-07-29T12:42:20;3.10;;;2.75;;
17024;SDS011;8629;42.496;25.620;2022-07-29T12:44:47;3.03;;;2.83;;
17024;SDS011;8629;42.496;25.620;2022-07-29T12:50:51;3.55;;;3.05;;
17024;SDS011;8629;42.496;25.620;2022-07-29T12:53:19;2.70;;;2.60;;
17024;SDS011;8629;42.496;25.620;2022-07-29T12:55:46;3.35;;;3.05;;
17024;SDS011;8629;42.496;25.620;2022-07-29T12:58:27;3.97;;;3.17;;
17024;SDS011;8629;42.496;25.620;2022-07-29T13:01:01;3.78;;;3.28;;
17024;SDS011;8629;42.496;25.620;2022-07-29T13:03:42;3.38;;;3.03;;
17024;SDS011;8629;42.496;25.620;2022-07-29T13:06:33;2.97;;;2.78;;
17024;SDS011;8629;42.496;25.620;2022-07-29T13:09:03;3.88;;;2.88;;
17024;SDS011;8629;42.496;25.620;2022-07-29T13:11:32;3.22;;;2.90;;
17024;SDS011;8629;42.496;25.620;2022-07-29T13:14:00;3.03;;;2.72;;
17024;SDS011;8629;42.496;25.620;2022-07-29T13:16:27;3.72;;;3.15;;
17024;SDS011;8629;42.496;25.620;2022-07-29T13:19:07;4.40;;;3.25;;
17024;SDS011;8629;42.496;25.620;2022-07-29T13:21:37;4.47;;;4.10;;
17024;SDS011;8629;42.496;25.620;2022-07-29T13:24:04;3.38;;;3.08;;
17024;SDS011;8629;42.496;25.620;2022-07-29T13:26:32;3.58;;;3.28;;
17024;SDS011;8629;42.496;25.620;2022-07-29T13:29:00;3.25;;;3.05;;
17024;SDS011;8629;42.496;25.620;2022-07-29T13:31:27;3.55;;;3.25;;
17024;SDS011;8629;42.496;25.620;2022-07-29T13:33:54;5.40;;;3.13;;
17024;SDS011;8629;42.496;25.620;2022-07-29T13:36:21;5.85;;;2.90;;
17024;SDS011;8629;42.496;25.620;2022-07-29T13:38:50;11.95;;;3.08;;
17024;SDS011;8629;42.496;25.620;2022-07-29T13:41:18;3.75;;;3.45;;
17024;SDS011;8629;42.496;25.620;2022-07-29T13:43:54;5.35;;;3.45;;
17024;SDS011;8629;42.496;25.620;2022-07-29T13:46:23;6.07;;;2.75;;
17024;SDS011;8629;42.496;25.620;2022-07-29T13:48:50;3.53;;;2.63;;
17024;SDS011;8629;42.496;25.620;2022-07-29T13:51:18;5.60;;;3.08;;
17024;SDS011;8629;42.496;25.620;2022-07-29T13:57:11;4.57;;;3.10;;
17024;SDS011;8629;42.496;25.620;2022-07-29T13:59:39;5.75;;;2.90;;
17024;SDS011;8629;42.496;25.620;2022-07-29T14:02:07;3.28;;;2.97;;
17024;SDS011;8629;42.496;25.620;2022-07-29T14:07:56;6.88;;;3.22;;
17024;SDS011;8629;42.496;25.620;2022-07-29T14:10:23;3.35;;;3.08;;
17024;SDS011;8629;42.496;25.620;2022-07-29T14:12:52;4.82;;;3.00;;
17024;SDS011;8629;42.496;25.620;2022-07-29T14:15:19;3.50;;;3.20;;
17024;SDS011;8629;42.496;25.620;2022-07-29T14:17:46;2.97;;;2.75;;
17024;SDS011;8629;42.496;25.620;2022-07-29T14:20:13;5.35;;;3.15;;
17024;SDS011;8629;42.496;25.620;2022-07-29T14:22:40;2.85;;;2.65;;
17024;SDS011;8629;42.496;25.620;2022-07-29T14:25:08;3.05;;;2.85;;
17024;SDS011;8629;42.496;25.620;2022-07-29T14:27:35;6.32;;;2.80;;
17024;SDS011;8629;42.496;25.620;2022-07-29T14:30:04;3.50;;;3.22;;
17024;SDS011;8629;42.496;25.620;2022-07-29T14:32:32;5.97;;;3.60;;
17024;SDS011;8629;42.496;25.620;2022-07-29T14:34:59;3.05;;;2.85;;
17024;SDS011;8629;42.496;25.620;2022-07-29T14:37:26;5.97;;;2.78;;
17024;SDS011;8629;42.496;25.620;2022-07-29T14:39:53;3.53;;;2.90;;
17024;SDS011;8629;42.496;25.620;2022-07-29T14:42:24;4.07;;;2.95;;
17024;SDS011;8629;42.496;25.620;2022-07-29T14:44:51;7.10;;;3.53;;
17024;SDS011;8629;42.496;25.620;2022-07-29T14:47:20;3.63;;;3.13;;
17024;SDS011;8629;42.496;25.620;2022-07-29T14:49:48;7.40;;;3.13;;
17024;SDS011;8629;42.496;25.620;2022-07-29T14:52:15;3.80;;;3.55;;
17024;SDS011;8629;42.496;25.620;2022-07-29T14:58:04;3.15;;;2.95;;
17024;SDS011;8629;42.496;25.620;2022-07-29T15:00:33;3.28;;;3.00;;
17024;SDS011;8629;42.496;25.620;2022-07-29T15:03:03;3.28;;;3.05;;
17024;SDS011;8629;42.496;25.620;2022-07-29T15:05:34;3.55;;;2.90;;
17024;SDS011;8629;42.496;25.620;2022-07-29T15:08:03;4.00;;;3.25;;
17024;SDS011;8629;42.496;25.620;2022-07-29T15:10:33;5.28;;;2.97;;
17024;SDS011;8629;42.496;25.620;2022-07-29T15:13:00;3.53;;;3.22;;
17024;SDS011;8629;42.496;25.620;2022-07-29T15:15:28;8.95;;;3.42;;
17024;SDS011;8629;42.496;25.620;2022-07-29T15:17:56;3.20;;;2.92;;
17024;SDS011;8629;42.496;25.620;2022-07-29T15:20:25;3.70;;;3.40;;
17024;SDS011;8629;42.496;25.620;2022-07-29T15:22:53;6.28;;;3.38;;
17024;SDS011;8629;42.496;25.620;2022-07-29T15:25:21;3.28;;;2.95;;
17024;SDS011;8629;42.496;25.620;2022-07-29T15:27:49;3.63;;;3.33;;
17024;SDS011;8629;42.496;25.620;2022-07-29T15:30:16;3.78;;;3.03;;
17024;SDS011;8629;42.496;25.620;2022-07-29T15:32:44;3.88;;;3.17;;
17024;SDS011;8629;42.496;25.620;2022-07-29T15:35:12;3.42;;;3.13;;
17024;SDS011;8629;42.496;25.620;2022-07-29T15:37:41;4.85;;;2.97;;
17024;SDS011;8629;42.496;25.620;2022-07-29T15:40:10;3.67;;;3.40;;
17024;SDS011;8629;42.496;25.620;2022-07-29T15:42:39;4.30;;;3.30;;
17024;SDS011;8629;42.496;25.620;2022-07-29T15:45:07;4.97;;;3.20;;
17024;SDS011;8629;42.496;25.620;2022-07-29T15:47:36;9.35;;;3.72;;
17024;SDS011;8629;42.496;25.620;2022-07-29T15:50:04;4.20;;;3.80;;
17024;SDS011;8629;42.496;25.620;2022-07-29T15:52:37;3.67;;;2.88;;
17024;SDS011;8629;42.496;25.620;2022-07-29T15:58:27;4.07;;;3.67;;
17024;SDS011;8629;42.496;25.620;2022-07-29T16:00:55;4.30;;;3.10;;
17024;SDS011;8629;42.496;25.620;2022-07-29T16:03:22;4.85;;;3.50;;
17024;SDS011;8629;42.496;25.620;2022-07-29T16:05:50;5.60;;;3.47;;